Time;durP1;ratioP1;P1;durP2;ratioP2;P2;SDS_P1;SDS_P2;PMS_P1;PMS_P2;Temp;Humidity;BMP_temperature;BMP_pressure;BME280_temperature;BME280_humidity;BME280_pressure;Samples;Min_cycle;Max_cycle;Signal;HPM_P1;HPM_P2
2021/09/13 00:01:35;;;;;;;25.48;18.70;;;;;;;16.71;82.90;100168.12;1725526;82;25927;-66
2021/09/13 00:04:02;;;;;;;24.75;18.92;;;;;;;16.67;82.74;100165.31;1719324;82;26027;-65
2021/09/13 00:06:28;;;;;;;24.57;18.65;;;;;;;16.63;82.72;100169.88;1711103;82;25735;-66
2021/09/13 00:08:57;;;;;;;24.43;18.55;;;;;;;16.61;82.77;100170.81;1718357;81;25731;-65
2021/09/13 00:11:23;;;;;;;23.80;18.93;;;;;;;16.60;82.95;100177.41;1724030;81;27231;-66
2021/09/13 00:13:50;;;;;;;27.27;18.20;;;;;;;16.58;82.84;100181.06;1719332;82;25833;-65
2021/09/13 00:16:18;;;;;;;24.52;18.57;;;;;;;16.55;82.90;100181.21;1717963;82;25851;-65
2021/09/13 00:18:45;;;;;;;23.62;18.20;;;;;;;16.53;82.89;100185.42;1731182;81;25747;-65
2021/09/13 00:21:11;;;;;;;26.73;19.70;;;;;;;16.49;82.77;100179.87;1724981;82;25721;-66
2021/09/13 00:23:38;;;;;;;25.80;18.52;;;;;;;16.47;83.11;100184.12;1712262;82;27302;-66
2021/09/13 00:26:05;;;;;;;24.07;17.80;;;;;;;16.44;82.95;100181.50;1721993;82;26488;-64
2021/09/13 00:28:31;;;;;;;23.80;18.90;;;;;;;16.41;82.91;100172.09;1723213;82;25921;-64
2021/09/13 00:30:58;;;;;;;25.52;17.87;;;;;;;16.39;82.79;100176.30;1724550;81;25759;-69
2021/09/13 00:33:24;;;;;;;26.00;17.65;;;;;;;16.36;82.93;100175.63;1729973;82;25704;-70
2021/09/13 00:35:51;;;;;;;28.12;19.67;;;;;;;16.34;82.95;100177.92;1745200;80;27261;-71
2021/09/13 00:38:18;;;;;;;30.05;19.50;;;;;;;16.31;83.30;100169.88;1760300;80;25866;-69
2021/09/13 00:40:44;;;;;;;25.85;19.05;;;;;;;16.26;83.32;100174.23;1722051;82;26438;-69
2021/09/13 00:43:11;;;;;;;22.67;16.90;;;;;;;16.23;83.34;100174.35;1680118;83;25658;-70
2021/09/13 00:45:38;;;;;;;26.02;18.02;;;;;;;16.22;83.49;100178.79;1709977;82;25668;-69
2021/09/13 00:48:06;;;;;;;29.07;18.52;;;;;;;16.20;83.50;100176.41;1698981;83;27333;-70
2021/09/13 00:50:33;;;;;;;27.75;18.62;;;;;;;16.18;83.60;100171.88;1740086;80;25852;-69
2021/09/13 00:53:01;;;;;;;33.02;19.55;;;;;;;16.15;83.44;100172.57;1744156;80;25814;-69
2021/09/13 00:55:27;;;;;;;26.80;19.25;;;;;;;16.12;83.50;100175.20;1745969;80;25778;-70
2021/09/13 00:57:55;;;;;;;26.75;19.37;;;;;;;16.07;83.46;100170.80;1738275;81;25791;-70
2021/09/13 01:00:22;;;;;;;35.75;21.70;;;;;;;16.02;83.71;100169.68;1739051;80;27364;-70
2021/09/13 01:02:49;;;;;;;25.37;19.80;;;;;;;16.00;83.90;100176.06;1738594;80;25838;-70
2021/09/13 01:05:16;;;;;;;27.87;18.85;;;;;;;15.98;84.06;100179.72;1738530;80;25710;-70
2021/09/13 01:07:42;;;;;;;28.95;19.20;;;;;;;15.96;83.95;100182.00;1750591;80;25724;-70
2021/09/13 01:10:10;;;;;;;26.87;20.45;;;;;;;15.94;84.03;100178.25;1738986;80;26320;-70
2021/09/13 01:12:37;;;;;;;30.92;21.02;;;;;;;15.94;84.09;100182.34;1758032;80;27244;-70
2021/09/13 01:15:06;;;;;;;28.67;20.85;;;;;;;15.91;84.30;100181.67;1741139;80;25751;-69
2021/09/13 01:17:35;;;;;;;30.23;21.73;;;;;;;15.90;84.49;100174.62;1713281;80;25747;-70
2021/09/13 01:20:05;;;;;;;30.75;22.27;;;;;;;15.87;84.58;100178.06;1755824;80;26289;-70
2021/09/13 01:22:34;;;;;;;28.85;21.37;;;;;;;15.86;84.88;100177.83;1741726;80;25899;-70
2021/09/13 01:25:01;;;;;;;27.90;21.35;;;;;;;15.84;84.83;100184.99;1749275;80;27413;-71
2021/09/13 01:27:28;;;;;;;27.10;20.92;;;;;;;15.83;84.78;100184.78;1733092;80;25839;-70
2021/09/13 01:29:55;;;;;;;28.17;21.07;;;;;;;15.83;84.90;100185.34;1751837;79;25807;-70
2021/09/13 01:32:21;;;;;;;29.90;20.95;;;;;;;15.82;84.77;100183.77;1749629;80;26013;-70
2021/09/13 01:34:48;;;;;;;25.85;20.50;;;;;;;15.83;84.86;100189.42;1753675;80;25760;-70
2021/09/13 01:37:15;;;;;;;28.70;19.95;;;;;;;15.82;84.72;100185.13;1741189;80;27391;-70
2021/09/13 01:39:41;;;;;;;28.67;20.05;;;;;;;15.81;84.74;100180.80;1759345;80;25584;-70
2021/09/13 01:42:08;;;;;;;28.57;20.15;;;;;;;15.81;84.81;100182.95;1752990;80;25835;-69
2021/09/13 01:44:34;;;;;;;27.13;20.52;;;;;;;15.82;85.12;100171.50;1741571;80;25714;-70
2021/09/13 01:47:00;;;;;;;28.70;20.30;;;;;;;15.83;85.12;100177.16;1729987;80;26368;-69
2021/09/13 01:49:27;;;;;;;26.07;21.07;;;;;;;15.84;85.22;100179.53;1737472;81;27381;-69
2021/09/13 01:51:54;;;;;;;29.45;20.52;;;;;;;15.85;85.26;100176.23;1743818;80;25695;-69
2021/09/13 01:54:22;;;;;;;29.00;20.50;;;;;;;15.86;85.29;100174.52;1742165;80;25836;-69
2021/09/13 01:56:48;;;;;;;27.67;20.30;;;;;;;15.87;85.32;100177.48;1761613;80;25807;-70
2021/09/13 01:59:15;;;;;;;28.67;19.27;;;;;;;15.88;85.12;100171.45;1756497;80;25802;-69
2021/09/13 02:01:42;;;;;;;29.60;20.43;;;;;;;15.89;85.03;100170.91;1738290;80;29480;-69
2021/09/13 02:04:09;;;;;;;24.63;18.75;;;;;;;15.90;85.08;100176.56;1738325;80;25879;-69
2021/09/13 02:06:35;;;;;;;26.37;20.37;;;;;;;15.89;84.95;100174.41;1751722;79;26024;-69
2021/09/13 02:09:02;;;;;;;25.97;19.67;;;;;;;15.88;84.94;100172.81;1741001;80;25780;-69
2021/09/13 02:11:28;;;;;;;26.37;19.92;;;;;;;15.87;84.91;100179.42;1754477;80;25851;-69
2021/09/13 02:13:55;;;;;;;26.52;19.32;;;;;;;15.84;84.92;100174.08;1755618;80;27596;-69
2021/09/13 02:16:21;;;;;;;28.02;20.45;;;;;;;15.82;84.93;100168.77;1747562;80;26283;-69
2021/09/13 02:18:48;;;;;;;25.95;19.70;;;;;;;15.81;84.88;100173.98;1745944;80;25884;-69
2021/09/13 02:21:15;;;;;;;26.75;19.90;;;;;;;15.78;84.83;100172.77;1742717;80;26553;-68
2021/09/13 02:23:42;;;;;;;28.38;20.55;;;;;;;15.77;84.77;100172.53;1742525;80;25860;-68
2021/09/13 02:26:08;;;;;;;31.50;20.97;;;;;;;15.76;84.94;100170.14;1743048;80;27242;-68
2021/09/13 02:28:35;;;;;;;25.62;19.98;;;;;;;15.72;84.85;100170.02;1757335;80;25623;-70
2021/09/13 02:31:01;;;;;;;29.07;20.82;;;;;;;15.72;84.94;100178.78;1746699;79;25821;-69
2021/09/13 02:33:28;;;;;;;28.00;20.85;;;;;;;15.70;85.00;100176.39;1755125;80;26044;-69
2021/09/13 02:35:55;;;;;;;27.50;20.85;;;;;;;15.68;84.91;100186.28;1741493;80;25868;-69
2021/09/13 02:38:21;;;;;;;24.85;19.80;;;;;;;15.66;85.06;100180.38;1740477;80;27310;-69
2021/09/13 02:40:47;;;;;;;27.13;19.80;;;;;;;15.65;85.01;100184.81;1746731;80;25633;-69
2021/09/13 02:43:14;;;;;;;25.70;18.92;;;;;;;15.63;85.05;100181.07;1753243;80;26098;-69
2021/09/13 02:45:41;;;;;;;28.80;19.92;;;;;;;15.61;84.93;100182.54;1736688;80;26172;-69
2021/09/13 02:48:07;;;;;;;29.60;21.12;;;;;;;15.60;84.97;100180.39;1747844;79;25854;-69
2021/09/13 02:50:34;;;;;;;28.23;21.27;;;;;;;15.60;84.87;100187.78;1752396;80;27302;-69
2021/09/13 02:53:01;;;;;;;29.60;21.70;;;;;;;15.59;84.93;100184.83;1744516;79;25678;-69
2021/09/13 02:55:28;;;;;;;30.40;21.23;;;;;;;15.58;85.13;100192.22;1752416;80;25678;-69
2021/09/13 02:57:55;;;;;;;29.48;20.48;;;;;;;15.57;85.06;100188.47;1739891;80;25715;-69
2021/09/13 03:00:22;;;;;;;30.25;19.77;;;;;;;15.55;85.03;100179.85;1742321;80;25907;-69
2021/09/13 03:02:49;;;;;;;26.95;19.40;;;;;;;15.54;85.02;100176.89;1761100;79;27431;-69
2021/09/13 03:05:16;;;;;;;24.32;18.25;;;;;;;15.52;84.95;100179.17;1739053;80;26092;-69
2021/09/13 03:07:43;;;;;;;26.75;18.73;;;;;;;15.50;84.84;100176.21;1758413;80;25889;-69
2021/09/13 03:10:11;;;;;;;23.87;18.02;;;;;;;15.48;84.85;100180.44;1745738;80;26124;-69
2021/09/13 03:12:38;;;;;;;31.62;20.68;;;;;;;15.47;84.92;100180.20;1742603;80;25945;-69
2021/09/13 03:15:09;;;;;;;28.55;20.27;;;;;;;15.45;85.07;100185.20;1746763;80;27309;-70
2021/09/13 03:17:37;;;;;;;26.82;19.65;;;;;;;15.42;85.02;100181.22;1757631;80;25906;-69
2021/09/13 03:20:05;;;;;;;24.80;18.90;;;;;;;15.41;85.01;100181.56;1742627;80;25623;-69
2021/09/13 03:22:31;;;;;;;28.60;21.52;;;;;;;15.40;85.00;100184.08;1756423;79;25814;-70
2021/09/13 03:24:59;;;;;;;30.95;21.77;;;;;;;15.38;85.11;100183.06;1750836;79;25675;-70
2021/09/13 03:27:25;;;;;;;27.62;21.23;;;;;;;15.37;84.96;100180.67;1752879;79;27306;-70
2021/09/13 03:29:52;;;;;;;32.03;20.43;;;;;;;15.35;85.02;100179.66;1751061;80;25906;-70
2021/09/13 03:32:18;;;;;;;29.27;19.60;;;;;;;15.33;85.22;100179.21;1742899;80;26215;-70
2021/09/13 03:34:45;;;;;;;28.55;20.32;;;;;;;15.31;85.27;100186.36;1745243;79;26124;-70
2021/09/13 03:37:11;;;;;;;26.70;21.45;;;;;;;15.29;85.10;100188.64;1748129;80;25771;-70
2021/09/13 03:39:38;;;;;;;30.25;21.57;;;;;;;15.27;84.97;100189.56;1751252;79;27873;-70
2021/09/13 03:42:05;;;;;;;32.00;21.57;;;;;;;15.27;85.36;100190.11;1752533;80;25697;-70
2021/09/13 03:44:32;;;;;;;30.35;22.13;;;;;;;15.27;85.73;100186.02;1758608;80;25859;-69
2021/09/13 03:46:58;;;;;;;30.95;21.10;;;;;;;15.26;85.64;100192.05;1752831;80;25690;-69
2021/09/13 03:49:25;;;;;;;28.57;19.40;;;;;;;15.25;85.52;100190.45;1741793;80;25681;-70
2021/09/13 03:51:52;;;;;;;26.65;20.30;;;;;;;15.24;85.55;100190.81;1739958;80;27305;-69
2021/09/13 03:54:19;;;;;;;27.70;20.15;;;;;;;15.23;85.44;100193.30;1758271;80;25910;-69
2021/09/13 03:56:46;;;;;;;25.30;19.92;;;;;;;15.22;85.43;100197.16;1736793;80;25900;-70
2021/09/13 03:59:12;;;;;;;28.23;20.57;;;;;;;15.21;85.48;100192.86;1741568;79;26531;-70
2021/09/13 04:01:38;;;;;;;24.63;18.50;;;;;;;15.19;85.36;100192.38;1688523;81;25599;-69
2021/09/13 04:04:06;;;;;;;25.70;17.95;;;;;;;15.16;85.33;100195.23;1719961;82;27342;-68
2021/09/13 04:11:49;;;;;;;25.70;18.50;;;;;;;15.15;85.34;100203.75;1691281;81;25916;-69
2021/09/13 04:14:15;;;;;;;25.85;18.05;;;;;;;15.12;85.33;100201.16;1715045;83;25666;-69
2021/09/13 04:16:42;;;;;;;28.75;19.37;;;;;;;15.10;85.30;100200.13;1705638;83;28178;-69
2021/09/13 04:19:10;;;;;;;30.97;20.95;;;;;;;15.09;85.55;100205.34;1708134;82;25442;-70
2021/09/13 04:21:36;;;;;;;26.70;19.17;;;;;;;15.06;85.45;100205.23;1716129;83;25804;-70
2021/09/13 04:24:04;;;;;;;30.32;20.85;;;;;;;15.02;85.47;100207.85;1761832;79;25678;-70
2021/09/13 04:26:31;;;;;;;29.18;19.05;;;;;;;14.99;85.48;100200.93;1772617;78;25780;-69
2021/09/13 04:28:59;;;;;;;26.33;19.55;;;;;;;14.99;85.58;100203.08;1741935;79;27320;-70
2021/09/13 04:31:27;;;;;;;28.67;18.37;;;;;;;14.99;85.76;100206.37;1748168;80;25846;-70
2021/09/13 04:33:54;;;;;;;31.00;20.35;;;;;;;15.00;85.79;100214.21;1767614;78;25874;-71
2021/09/13 04:36:21;;;;;;;27.48;20.05;;;;;;;15.00;85.98;100209.31;1753129;80;26627;-70
2021/09/13 04:38:48;;;;;;;28.32;19.65;;;;;;;15.00;86.16;100214.21;1746765;79;25377;-70
2021/09/13 04:41:15;;;;;;;25.48;19.98;;;;;;;15.01;86.27;100212.27;1771442;79;27493;-70
2021/09/13 04:43:41;;;;;;;30.80;20.97;;;;;;;15.04;86.25;100208.88;1769031;79;25435;-70
2021/09/13 04:46:07;;;;;;;27.65;20.85;;;;;;;15.04;86.37;100212.38;1769888;79;29919;-69
2021/09/13 04:48:34;;;;;;;34.05;22.65;;;;;;;15.06;86.41;100216.13;1772012;78;27767;-69
2021/09/13 04:51:00;;;;;;;30.97;21.50;;;;;;;15.07;86.66;100219.87;1763307;78;25677;-69
2021/09/13 04:53:27;;;;;;;33.18;22.45;;;;;;;15.07;86.69;100214.43;1762122;78;27369;-68
2021/09/13 04:55:54;;;;;;;28.38;21.30;;;;;;;15.07;86.71;100213.64;1763283;78;26236;-68
2021/09/13 04:58:22;;;;;;;29.85;21.17;;;;;;;15.08;87.07;100213.28;1755733;79;26061;-68
2021/09/13 05:00:49;;;;;;;29.70;21.82;;;;;;;15.12;87.32;100222.38;1776764;79;25798;-69
2021/09/13 05:03:17;;;;;;;31.75;23.10;;;;;;;15.17;87.41;100227.36;1761169;79;25731;-70
2021/09/13 05:05:43;;;;;;;31.30;23.18;;;;;;;15.20;87.52;100223.95;1762306;78;27351;-70
2021/09/13 05:08:10;;;;;;;28.70;21.70;;;;;;;15.22;87.64;100233.39;1759741;78;26410;-71
2021/09/13 05:10:36;;;;;;;32.50;22.93;;;;;;;15.26;87.81;100227.47;1762849;79;25668;-70
2021/09/13 05:13:03;;;;;;;49.53;22.55;;;;;;;15.29;87.91;100224.64;1766443;79;25860;-70
2021/09/13 05:15:30;;;;;;;38.85;25.32;;;;;;;15.34;88.05;100227.13;1758029;78;25737;-70
2021/09/13 05:17:57;;;;;;;28.87;22.60;;;;;;;15.36;87.87;100230.86;1759162;78;27285;-70
2021/09/13 05:20:23;;;;;;;30.43;23.25;;;;;;;15.39;87.90;100230.17;1740871;80;26496;-70
2021/09/13 05:22:50;;;;;;;32.75;22.80;;;;;;;15.41;87.88;100230.63;1753986;79;25850;-70
2021/09/13 05:25:19;;;;;;;36.00;22.48;;;;;;;15.45;88.04;100238.35;1761914;79;25660;-69
2021/09/13 05:27:45;;;;;;;37.35;24.63;;;;;;;15.49;88.19;100240.61;1758143;78;26045;-69
2021/09/13 05:30:12;;;;;;;31.35;23.10;;;;;;;15.54;88.36;100241.73;1755178;79;27453;-69
2021/09/13 05:32:38;;;;;;;32.95;22.95;;;;;;;15.59;88.41;100235.26;1768982;79;25923;-68
2021/09/13 05:35:08;;;;;;;32.00;22.52;;;;;;;15.63;88.47;100241.05;1752567;80;26393;-68
2021/09/13 05:37:34;;;;;;;35.23;22.87;;;;;;;15.67;88.34;100247.39;1769848;78;25921;-68
2021/09/13 05:40:06;;;;;;;33.30;22.95;;;;;;;15.70;88.33;100243.20;1739323;81;25693;-68
2021/09/13 05:42:33;;;;;;;31.70;23.65;;;;;;;15.75;88.55;100240.26;1751105;78;27483;-67
2021/09/13 05:45:00;;;;;;;32.73;24.25;;;;;;;15.80;88.64;100243.30;1755019;80;25679;-68
2021/09/13 05:47:26;;;;;;;32.60;24.57;;;;;;;15.83;88.52;100239.33;1750083;80;25781;-67
2021/09/13 05:49:53;;;;;;;33.67;23.50;;;;;;;15.87;88.56;100245.67;1755656;80;25742;-68
2021/09/13 05:52:22;;;;;;;35.85;23.87;;;;;;;15.90;88.41;100243.38;1756896;80;25834;-68
2021/09/13 05:54:48;;;;;;;34.40;24.37;;;;;;;15.95;88.53;100247.23;1767463;80;27885;-68
2021/09/13 05:57:16;;;;;;;34.45;24.85;;;;;;;16.00;88.67;100244.26;1760055;79;25757;-68
2021/09/13 05:59:43;;;;;;;34.60;24.80;;;;;;;16.03;88.70;100251.75;1776229;80;25671;-68
2021/09/13 06:02:10;;;;;;;34.25;25.70;;;;;;;16.09;88.95;100242.74;1760269;80;26271;-68
2021/09/13 06:04:37;;;;;;;35.75;25.65;;;;;;;16.13;88.87;100246.38;1762108;80;26469;-68
2021/09/13 06:07:05;;;;;;;33.63;25.08;;;;;;;16.19;88.96;100250.43;1759608;79;27288;-68
2021/09/13 06:09:32;;;;;;;34.20;25.20;;;;;;;16.24;88.94;100248.27;1759626;80;25872;-68
2021/09/13 06:11:59;;;;;;;33.67;24.80;;;;;;;16.29;88.93;100252.66;1760659;79;25868;-68
2021/09/13 06:14:26;;;;;;;34.90;25.50;;;;;;;16.34;88.86;100243.44;1764967;80;27784;-68
2021/09/13 06:16:53;;;;;;;40.08;26.55;;;;;;;16.39;88.94;100249.42;1761802;79;25703;-68
2021/09/13 06:19:19;;;;;;;32.08;24.65;;;;;;;16.43;89.07;100243.50;1754446;79;27790;-68
2021/09/13 06:21:46;;;;;;;36.28;26.85;;;;;;;16.46;88.72;100243.94;1759177;79;26021;-68
2021/09/13 06:24:13;;;;;;;35.83;25.48;;;;;;;16.50;88.77;100242.09;1743417;79;25807;-68
2021/09/13 06:26:41;;;;;;;41.28;27.07;;;;;;;16.56;89.28;100242.06;1764024;79;25875;-68
2021/09/13 06:29:08;;;;;;;34.92;25.32;;;;;;;16.64;89.55;100245.78;1755538;80;25750;-68
2021/09/13 06:31:35;;;;;;;35.08;25.75;;;;;;;16.67;89.02;100245.06;1727864;80;27306;-68
2021/09/13 06:34:02;;;;;;;39.90;24.92;;;;;;;16.70;89.03;100242.45;1743804;79;25867;-68
2021/09/13 06:36:31;;;;;;;34.65;25.75;;;;;;;16.72;88.80;100248.34;1721807;81;26264;-68
2021/09/13 06:38:58;;;;;;;31.77;23.92;;;;;;;16.75;88.90;100243.55;1737893;81;25639;-68
2021/09/13 06:41:25;;;;;;;35.30;26.15;;;;;;;16.79;88.92;100239.54;1756375;80;25633;-68
2021/09/13 06:43:53;;;;;;;37.60;26.65;;;;;;;16.86;89.40;100243.05;1701421;83;27331;-68
2021/09/13 06:46:25;;;;;;;33.70;25.40;;;;;;;16.94;89.46;100239.33;1687168;83;25793;-68
2021/09/13 06:48:49;;;;;;;36.17;25.75;;;;;;;17.01;89.65;100239.52;1690461;82;25858;-68
2021/09/13 06:51:17;;;;;;;34.50;25.97;;;;;;;17.05;89.29;100243.12;1691854;82;25599;-68
2021/09/13 06:53:44;;;;;;;37.20;26.20;;;;;;;17.09;88.83;100243.20;1736086;81;25885;-68
2021/09/13 06:56:12;;;;;;;40.92;28.40;;;;;;;17.10;88.96;100246.95;1752461;80;27353;-68
2021/09/13 06:58:40;;;;;;;35.95;26.60;;;;;;;17.13;88.68;100250.92;1745672;80;25798;-68
2021/09/13 07:01:07;;;;;;;37.38;27.93;;;;;;;17.15;88.85;100254.88;1751740;80;25672;-67
2021/09/13 07:03:37;;;;;;;39.90;27.70;;;;;;;17.21;88.88;100257.34;1712209;81;25957;-67
2021/09/13 07:06:03;;;;;;;37.30;28.30;;;;;;;17.25;88.77;100258.23;1699484;81;25925;-68
2021/09/13 07:08:32;;;;;;;37.78;27.10;;;;;;;17.30;88.86;100267.53;1686487;82;27319;-68
2021/09/13 07:11:01;;;;;;;37.73;27.42;;;;;;;17.35;88.74;100261.79;1726309;80;25681;-68
2021/09/13 07:13:28;;;;;;;;;;;;;;;17.42;88.97;100265.23;1742384;81;25627;-68
2021/09/13 07:15:55;;;;;;;33.90;24.72;;;;;;;17.49;88.84;100267.56;1734963;80;25849;-68
2021/09/13 07:18:22;;;;;;;35.98;26.05;;;;;;;17.54;88.96;100263.19;1720697;80;26790;-67
2021/09/13 07:20:49;;;;;;;41.77;26.82;;;;;;;17.59;88.54;100265.41;1706950;81;27938;-66
2021/09/13 07:23:15;;;;;;;36.05;27.02;;;;;;;17.66;88.73;100262.28;1705828;81;25709;-66
2021/09/13 07:25:43;;;;;;;38.90;27.17;;;;;;;17.70;88.61;100260.40;1685715;82;25650;-66
2021/09/13 07:28:11;;;;;;;38.92;27.30;;;;;;;17.75;88.37;100257.96;1703757;81;25669;-66
2021/09/13 07:30:38;;;;;;;37.67;26.33;;;;;;;17.80;88.33;100263.16;1699363;81;26565;-66
2021/09/13 07:33:04;;;;;;;36.95;27.40;;;;;;;17.81;88.22;100262.02;1699490;82;27313;-66
2021/09/13 07:35:31;;;;;;;34.27;24.65;;;;;;;17.91;88.76;100266.12;1722081;81;25926;-66
2021/09/13 07:37:57;;;;;;;38.55;27.02;;;;;;;17.97;88.16;100268.81;1712802;81;25721;-66
2021/09/13 07:40:24;;;;;;;37.78;27.32;;;;;;;18.01;87.91;100274.36;1717962;80;26404;-66
2021/09/13 07:42:51;;;;;;;35.58;26.60;;;;;;;18.08;88.29;100271.75;1731833;81;25911;-67
2021/09/13 07:45:18;;;;;;;37.83;27.67;;;;;;;18.15;88.17;100277.39;1720275;81;29626;-66
2021/09/13 07:47:44;;;;;;;36.15;25.70;;;;;;;18.19;87.55;100273.36;1724224;80;26467;-66
2021/09/13 07:50:12;;;;;;;38.40;27.05;;;;;;;18.22;87.45;100273.42;1720235;81;26412;-66
2021/09/13 07:52:38;;;;;;;35.48;26.50;;;;;;;18.31;88.04;100277.89;1722698;81;25931;-67
2021/09/13 07:55:06;;;;;;;35.58;24.92;;;;;;;18.40;87.71;100278.44;1718252;81;25515;-66
2021/09/13 07:57:33;;;;;;;31.85;25.17;;;;;;;18.46;87.85;100272.31;1735448;81;27901;-66
2021/09/13 08:00:00;;;;;;;38.08;25.77;;;;;;;18.55;87.79;100271.30;1733264;81;25617;-66
2021/09/13 08:02:26;;;;;;;35.25;24.07;;;;;;;18.68;88.22;100274.08;1734648;81;25302;-67
2021/09/13 08:04:53;;;;;;;30.82;24.77;;;;;;;18.80;87.83;100271.74;1744732;80;26303;-69
2021/09/13 08:07:20;;;;;;;34.13;24.63;;;;;;;18.88;87.13;100268.56;1738186;80;26528;-68
2021/09/13 08:09:47;;;;;;;30.62;24.50;;;;;;;18.90;86.65;100274.45;1690857;82;27383;-68
2021/09/13 08:12:14;;;;;;;34.38;25.08;;;;;;;18.95;86.70;100275.52;1703137;81;25770;-70
2021/09/13 08:14:40;;;;;;;33.85;24.95;;;;;;;19.03;86.79;100270.38;1704015;82;25756;-70
2021/09/13 08:17:07;;;;;;;31.87;24.95;;;;;;;19.18;87.72;100277.67;1706568;82;26562;-69
2021/09/13 08:19:34;;;;;;;32.90;23.60;;;;;;;19.34;86.61;100274.80;1719478;81;25835;-69
2021/09/13 08:22:01;;;;;;;30.90;23.60;;;;;;;19.50;87.16;100284.23;1726914;81;27853;-69
2021/09/13 08:24:27;;;;;;;31.20;23.50;;;;;;;19.70;86.65;100289.02;1724525;82;25831;-68
2021/09/13 08:26:56;;;;;;;35.08;25.45;;;;;;;19.94;87.12;100285.05;1726896;82;25651;-69
2021/09/13 08:29:24;;;;;;;33.98;25.32;;;;;;;20.49;88.10;100289.99;1730876;82;26614;-71
2021/09/13 08:31:52;;;;;;;28.35;23.83;;;;;;;21.16;87.97;100285.52;1727299;80;25708;-70
2021/09/13 08:34:19;;;;;;;31.23;22.70;;;;;;;21.92;87.52;100286.80;1728074;80;27698;-69
2021/09/13 08:36:47;;;;;;;27.07;20.72;;;;;;;22.53;83.97;100287.63;1724148;81;27198;-69
2021/09/13 08:39:14;;;;;;;28.30;21.80;;;;;;;22.84;80.81;100294.96;1734007;80;25853;-69
2021/09/13 08:41:43;;;;;;;24.57;19.30;;;;;;;22.88;78.54;100294.36;1745261;80;26199;-67
2021/09/13 08:44:13;;;;;;;25.82;20.00;;;;;;;23.07;78.33;100294.59;1740442;80;25737;-67
2021/09/13 08:47:01;;;;;;;26.75;19.30;;;;;;;23.48;77.45;100294.18;1742552;81;27320;-69
2021/09/13 08:49:35;;;;;;;23.75;19.23;;;;;;;23.89;76.93;100291.52;1715882;81;25887;-68
2021/09/13 08:52:03;;;;;;;23.10;18.80;;;;;;;24.36;76.16;100292.09;1726896;80;25637;-68
2021/09/13 08:54:31;;;;;;;24.12;17.65;;;;;;;25.15;76.95;100293.74;1705065;83;25675;-68
2021/09/13 08:57:02;;;;;;;25.77;17.45;;;;;;;25.88;75.03;100293.80;1718555;82;27081;-68
2021/09/13 08:59:30;;;;;;;22.05;18.05;;;;;;;26.38;72.89;100289.66;1729083;81;27287;-68
2021/09/13 09:01:59;;;;;;;20.40;17.52;;;;;;;26.95;71.44;100290.20;1710060;81;25977;-69
2021/09/13 09:04:30;;;;;;;21.70;16.02;;;;;;;27.53;69.36;100296.95;1719948;80;25724;-70
2021/09/13 09:07:18;;;;;;;19.87;17.57;;;;;;;27.84;66.97;100291.78;1710408;81;25810;-69
2021/09/13 09:09:41;;;;;;;19.30;16.30;;;;;;;27.96;64.45;100298.13;1709840;79;25968;-69
2021/09/13 09:12:10;;;;;;;18.73;16.30;;;;;;;27.93;64.22;100298.98;1723841;80;27286;-70
2021/09/13 09:14:47;;;;;;;15.30;13.72;;;;;;;27.76;63.03;100297.48;1741434;81;25587;-70
2021/09/13 09:17:26;;;;;;;18.05;13.53;;;;;;;27.68;61.95;100296.05;1722600;80;25803;-68
2021/09/13 09:20:07;;;;;;;14.58;11.73;;;;;;;27.56;61.33;100298.86;1712061;80;25659;-68
2021/09/13 09:22:38;;;;;;;11.90;10.68;;;;;;;27.72;61.56;100297.37;1714908;80;25660;-67
2021/09/13 09:25:06;;;;;;;12.03;8.60;;;;;;;28.27;61.23;100291.70;1707166;80;27324;-67
2021/09/13 09:27:58;;;;;;;11.45;9.43;;;;;;;28.80;60.70;100293.09;1725218;81;25929;-67
2021/09/13 09:30:41;;;;;;;9.68;8.73;;;;;;;29.03;58.67;100290.75;1726950;80;25637;-67
2021/09/13 09:33:20;;;;;;;10.38;8.40;;;;;;;29.19;56.76;100290.59;1729381;81;25896;-67
2021/09/13 09:35:55;;;;;;;10.38;7.42;;;;;;;29.21;55.79;100293.72;1712575;80;25734;-66
2021/09/13 09:38:32;;;;;;;7.10;6.40;;;;;;;29.51;54.94;100288.94;1743320;81;27972;-67
2021/09/13 09:41:12;;;;;;;7.95;7.25;;;;;;;30.03;54.88;100292.70;1743253;81;25789;-67
2021/09/13 09:43:57;;;;;;;8.28;7.10;;;;;;;30.57;53.18;100286.29;1719262;81;25889;-67
2021/09/13 09:46:26;;;;;;;7.10;6.05;;;;;;;31.03;52.43;100291.61;1701545;82;25744;-67
2021/09/13 09:49:08;;;;;;;8.70;6.10;;;;;;;31.30;50.64;100274.95;1681372;82;25535;-67
2021/09/13 09:51:41;;;;;;;7.12;6.22;;;;;;;31.70;50.35;100279.30;1708999;82;27403;-65
2021/09/13 09:54:15;;;;;;;7.35;6.17;;;;;;;32.00;47.67;100283.38;1690323;82;25703;-65
2021/09/13 09:56:45;;;;;;;9.65;6.22;;;;;;;32.15;47.19;100279.45;1705163;82;25769;-64
2021/09/13 09:59:17;;;;;;;9.58;6.50;;;;;;;32.27;47.15;100281.98;1711467;81;25781;-64
2021/09/13 10:01:49;;;;;;;6.87;6.17;;;;;;;32.72;46.65;100281.23;1698587;82;25691;-65
2021/09/13 10:04:25;;;;;;;8.38;6.78;;;;;;;33.10;45.59;100288.44;1719477;80;28152;-65
2021/09/13 10:06:59;;;;;;;7.40;6.10;;;;;;;33.23;43.90;100286.94;1693795;82;25886;-65
2021/09/13 10:09:29;;;;;;;13.25;6.03;;;;;;;33.11;43.18;100285.18;1749933;78;25699;-65
2021/09/13 10:12:01;;;;;;;8.60;6.75;;;;;;;33.22;43.61;100285.37;1758049;80;26304;-64
2021/09/13 10:14:30;;;;;;;9.60;6.03;;;;;;;33.23;42.11;100281.33;1759436;79;25329;-64
2021/09/13 10:16:58;;;;;;;7.03;6.42;;;;;;;33.24;42.31;100274.50;1756757;79;27321;-63
2021/09/13 10:19:27;;;;;;;8.28;6.55;;;;;;;33.10;41.06;100273.03;1751487;79;25907;-62
2021/09/13 10:21:55;;;;;;;8.50;6.53;;;;;;;32.69;40.94;100273.15;1760562;79;25812;-64
2021/09/13 10:24:31;;;;;;;12.80;7.30;;;;;;;32.41;41.48;100279.88;1744895;80;32572;-63
2021/09/13 10:27:14;;;;;;;8.30;7.25;;;;;;;32.14;39.97;100283.47;1747746;79;25922;-63
2021/09/13 10:29:42;;;;;;;8.80;6.95;;;;;;;31.50;40.86;100275.45;1758687;79;27275;-65
2021/09/13 10:32:12;;;;;;;7.50;6.72;;;;;;;31.17;42.20;100266.60;1748390;79;26249;-65
2021/09/13 10:34:49;;;;;;;7.30;6.60;;;;;;;31.34;42.76;100272.17;1758973;80;25573;-65
2021/09/13 10:37:23;;;;;;;9.38;6.53;;;;;;;31.64;42.74;100269.95;1749000;79;25967;-65
2021/09/13 10:40:06;;;;;;;10.05;8.55;;;;;;;32.02;41.79;100275.92;1752490;79;25747;-65
2021/09/13 10:42:55;;;;;;;8.35;7.42;;;;;;;32.13;41.76;100267.94;1753441;79;27319;-65
2021/09/13 10:45:41;;;;;;;8.98;7.72;;;;;;;32.11;41.42;100265.43;1698695;81;26399;-64
2021/09/13 10:48:21;;;;;;;7.90;7.10;;;;;;;31.92;41.06;100271.52;1701659;82;25738;-65
2021/09/13 10:50:51;;;;;;;8.58;7.78;;;;;;;31.59;40.99;100273.34;1714110;83;25799;-64
2021/09/13 10:53:27;;;;;;;9.35;8.05;;;;;;;31.13;40.66;100270.92;1715060;82;25766;-64
2021/09/13 10:56:10;;;;;;;9.60;8.30;;;;;;;30.54;40.75;100269.81;1711470;83;27439;-64
2021/09/13 10:58:56;;;;;;;8.65;7.85;;;;;;;29.96;41.28;100276.95;1682343;83;25638;-64
2021/09/13 11:01:27;;;;;;;12.58;8.38;;;;;;;29.89;42.77;100274.38;1713726;81;26422;-64
2021/09/13 11:04:04;;;;;;;9.55;8.58;;;;;;;29.62;42.18;100275.50;1720171;81;26012;-64
2021/09/13 11:06:44;;;;;;;11.43;8.63;;;;;;;29.28;42.26;100267.69;1710101;80;25861;-63
2021/09/13 11:09:14;;;;;;;10.10;8.83;;;;;;;28.91;42.70;100270.55;1745377;80;27322;-64
2021/09/13 11:11:49;;;;;;;9.98;8.98;;;;;;;28.58;43.74;100273.34;1741865;81;25674;-64
2021/09/13 11:14:19;;;;;;;12.00;9.95;;;;;;;28.31;44.18;100270.77;1687288;81;25860;-67
2021/09/13 11:16:52;;;;;;;10.45;9.13;;;;;;;27.99;45.21;100277.80;1734831;80;25710;-67
2021/09/13 11:19:22;;;;;;;11.45;9.80;;;;;;;27.98;46.59;100273.47;1720525;82;25901;-68
2021/09/13 11:21:53;;;;;;;10.63;9.63;;;;;;;28.23;47.53;100272.13;1673485;83;27388;-68
2021/09/13 11:24:29;;;;;;;11.48;9.65;;;;;;;28.42;46.13;100270.53;1667128;83;25730;-66